sensor_id;sensor_type;location;lat;lon;timestamp;temperature;humidity
17348;DHT22;8791;50.876;4.342;2022-11-04T00:02:00;10.40;99.90
17348;DHT22;8791;50.876;4.342;2022-11-04T00:04:28;10.40;99.90
17348;DHT22;8791;50.876;4.342;2022-11-04T00:06:56;10.50;99.90
17348;DHT22;8791;50.876;4.342;2022-11-04T00:09:25;10.40;99.90
17348;DHT22;8791;50.876;4.342;2022-11-04T00:11:53;10.40;99.90
17348;DHT22;8791;50.876;4.342;2022-11-04T00:14:37;10.30;99.90
17348;DHT22;8791;50.876;4.342;2022-11-04T00:17:04;10.40;99.90
17348;DHT22;8791;50.876;4.342;2022-11-04T00:19:47;10.30;99.90
17348;DHT22;8791;50.876;4.342;2022-11-04T00:22:34;10.30;99.90
17348;DHT22;8791;50.876;4.342;2022-11-04T00:25:18;10.40;99.90
17348;DHT22;8791;50.876;4.342;2022-11-04T00:28:09;10.50;99.90
17348;DHT22;8791;50.876;4.342;2022-11-04T00:30:54;10.50;99.90
17348;DHT22;8791;50.876;4.342;2022-11-04T00:33:21;10.40;99.90
17348;DHT22;8791;50.876;4.342;2022-11-04T00:35:50;10.30;99.90
17348;DHT22;8791;50.876;4.342;2022-11-04T00:38:19;10.30;99.90
17348;DHT22;8791;50.876;4.342;2022-11-04T00:40:46;10.30;99.90
17348;DHT22;8791;50.876;4.342;2022-11-04T00:43:12;10.30;99.90
17348;DHT22;8791;50.876;4.342;2022-11-04T00:45:40;10.40;99.90
17348;DHT22;8791;50.876;4.342;2022-11-04T00:48:07;10.50;99.90
17348;DHT22;8791;50.876;4.342;2022-11-04T00:50:34;10.50;99.90
17348;DHT22;8791;50.876;4.342;2022-11-04T00:53:02;10.50;99.90
17348;DHT22;8791;50.876;4.342;2022-11-04T00:55:30;10.60;99.90
17348;DHT22;8791;50.876;4.342;2022-11-04T00:57:57;10.70;99.90
17348;DHT22;8791;50.876;4.342;2022-11-04T01:00:24;10.70;99.90
17348;DHT22;8791;50.876;4.342;2022-11-04T01:02:51;10.70;99.90
17348;DHT22;8791;50.876;4.342;2022-11-04T01:05:18;10.60;99.90
17348;DHT22;8791;50.876;4.342;2022-11-04T01:07:45;10.50;99.90
17348;DHT22;8791;50.876;4.342;2022-11-04T01:10:12;10.60;99.90
17348;DHT22;8791;50.876;4.342;2022-11-04T01:12:40;10.60;99.90
17348;DHT22;8791;50.876;4.342;2022-11-04T01:15:07;10.60;99.90
17348;DHT22;8791;50.876;4.342;2022-11-04T01:17:34;10.60;99.90
17348;DHT22;8791;50.876;4.342;2022-11-04T01:20:01;10.50;99.90
17348;DHT22;8791;50.876;4.342;2022-11-04T01:22:28;10.60;99.90
17348;DHT22;8791;50.876;4.342;2022-11-04T01:24:55;10.60;99.90
17348;DHT22;8791;50.876;4.342;2022-11-04T01:27:22;10.60;99.90
17348;DHT22;8791;50.876;4.342;2022-11-04T01:29:50;10.50;99.90
17348;DHT22;8791;50.876;4.342;2022-11-04T01:32:17;10.60;99.90
17348;DHT22;8791;50.876;4.342;2022-11-04T01:34:45;10.70;99.90
17348;DHT22;8791;50.876;4.342;2022-11-04T01:37:11;10.60;99.90
17348;DHT22;8791;50.876;4.342;2022-11-04T01:39:38;10.50;99.90
17348;DHT22;8791;50.876;4.342;2022-11-04T01:42:05;10.40;99.90
17348;DHT22;8791;50.876;4.342;2022-11-04T01:45:00;10.40;99.90
17348;DHT22;8791;50.876;4.342;2022-11-04T01:47:31;10.30;99.90
17348;DHT22;8791;50.876;4.342;2022-11-04T01:50:06;10.30;99.90
17348;DHT22;8791;50.876;4.342;2022-11-04T01:52:36;10.30;99.90
17348;DHT22;8791;50.876;4.342;2022-11-04T01:55:11;10.40;99.90
17348;DHT22;8791;50.876;4.342;2022-11-04T01:57:41;10.50;99.90
17348;DHT22;8791;50.876;4.342;2022-11-04T02:00:14;10.50;99.90
17348;DHT22;8791;50.876;4.342;2022-11-04T02:02:48;10.50;99.90
17348;DHT22;8791;50.876;4.342;2022-11-04T02:05:16;10.40;99.90
17348;DHT22;8791;50.876;4.342;2022-11-04T02:07:46;10.40;99.90
17348;DHT22;8791;50.876;4.342;2022-11-04T02:10:15;10.30;99.90
17348;DHT22;8791;50.876;4.342;2022-11-04T02:12:43;10.30;99.90
17348;DHT22;8791;50.876;4.342;2022-11-04T02:15:18;10.30;99.90
17348;DHT22;8791;50.876;4.342;2022-11-04T02:18:02;10.30;99.90
17348;DHT22;8791;50.876;4.342;2022-11-04T02:20:45;10.20;99.90
17348;DHT22;8791;50.876;4.342;2022-11-04T02:29:23;10.10;99.90
17348;DHT22;8791;50.876;4.342;2022-11-04T02:31:58;10.30;99.90
17348;DHT22;8791;50.876;4.342;2022-11-04T02:34:36;10.30;99.90
17348;DHT22;8791;50.876;4.342;2022-11-04T02:37:08;10.20;99.90
17348;DHT22;8791;50.876;4.342;2022-11-04T02:39:46;10.30;99.90
17348;DHT22;8791;50.876;4.342;2022-11-04T02:42:22;10.40;99.90
17348;DHT22;8791;50.876;4.342;2022-11-04T02:44:59;10.50;99.90
17348;DHT22;8791;50.876;4.342;2022-11-04T02:47:30;10.60;99.90
17348;DHT22;8791;50.876;4.342;2022-11-04T02:50:02;10.70;99.90
17348;DHT22;8791;50.876;4.342;2022-11-04T02:52:35;10.50;99.90
17348;DHT22;8791;50.876;4.342;2022-11-04T02:55:10;10.50;99.90
17348;DHT22;8791;50.876;4.342;2022-11-04T02:57:40;10.40;99.90
17348;DHT22;8791;50.876;4.342;2022-11-04T03:00:12;10.50;99.90
17348;DHT22;8791;50.876;4.342;2022-11-04T03:02:41;10.50;99.90
17348;DHT22;8791;50.876;4.342;2022-11-04T03:05:13;10.60;99.90
17348;DHT22;8791;50.876;4.342;2022-11-04T03:07:43;10.50;99.90
17348;DHT22;8791;50.876;4.342;2022-11-04T03:10:15;10.50;99.90
17348;DHT22;8791;50.876;4.342;2022-11-04T03:12:46;10.60;99.90
17348;DHT22;8791;50.876;4.342;2022-11-04T03:15:19;10.70;99.90
17348;DHT22;8791;50.876;4.342;2022-11-04T03:17:52;10.60;99.90
17348;DHT22;8791;50.876;4.342;2022-11-04T03:20:21;10.60;99.90
17348;DHT22;8791;50.876;4.342;2022-11-04T03:22:50;10.70;99.90
17348;DHT22;8791;50.876;4.342;2022-11-04T03:25:22;10.70;99.90
17348;DHT22;8791;50.876;4.342;2022-11-04T03:27:55;10.60;99.90
17348;DHT22;8791;50.876;4.342;2022-11-04T03:30:34;10.60;99.90
17348;DHT22;8791;50.876;4.342;2022-11-04T03:33:06;10.60;99.90
17348;DHT22;8791;50.876;4.342;2022-11-04T03:35:37;10.60;99.90
17348;DHT22;8791;50.876;4.342;2022-11-04T03:38:04;10.70;99.90
17348;DHT22;8791;50.876;4.342;2022-11-04T03:40:31;10.80;99.90
17348;DHT22;8791;50.876;4.342;2022-11-04T03:43:02;10.80;99.90
17348;DHT22;8791;50.876;4.342;2022-11-04T03:45:31;10.80;99.90
17348;DHT22;8791;50.876;4.342;2022-11-04T03:47:59;10.80;99.90
17348;DHT22;8791;50.876;4.342;2022-11-04T03:50:28;10.80;99.90
17348;DHT22;8791;50.876;4.342;2022-11-04T03:52:56;10.90;99.90
17348;DHT22;8791;50.876;4.342;2022-11-04T03:55:28;11.00;99.90
17348;DHT22;8791;50.876;4.342;2022-11-04T03:58:02;11.10;99.90
17348;DHT22;8791;50.876;4.342;2022-11-04T04:00:35;11.00;99.90
17348;DHT22;8791;50.876;4.342;2022-11-04T04:03:07;11.20;99.90
17348;DHT22;8791;50.876;4.342;2022-11-04T04:05:39;11.20;99.90
17348;DHT22;8791;50.876;4.342;2022-11-04T04:08:13;11.10;99.90
17348;DHT22;8791;50.876;4.342;2022-11-04T04:10:47;11.00;99.90
17348;DHT22;8791;50.876;4.342;2022-11-04T04:13:33;10.90;99.90
17348;DHT22;8791;50.876;4.342;2022-11-04T04:16:07;11.00;99.90
17348;DHT22;8791;50.876;4.342;2022-11-04T04:18:38;11.10;99.90
17348;DHT22;8791;50.876;4.342;2022-11-04T04:21:08;11.00;99.90
17348;DHT22;8791;50.876;4.342;2022-11-04T04:23:37;11.10;99.90
17348;DHT22;8791;50.876;4.342;2022-11-04T04:26:23;11.00;99.90
17348;DHT22;8791;50.876;4.342;2022-11-04T04:29:08;11.10;99.90
17348;DHT22;8791;50.876;4.342;2022-11-04T04:31:38;11.30;99.90
17348;DHT22;8791;50.876;4.342;2022-11-04T04:34:15;11.10;99.90
17348;DHT22;8791;50.876;4.342;2022-11-04T04:36:45;11.10;99.90
17348;DHT22;8791;50.876;4.342;2022-11-04T04:39:17;11.00;99.90
17348;DHT22;8791;50.876;4.342;2022-11-04T04:42:03;11.10;99.90
17348;DHT22;8791;50.876;4.342;2022-11-04T04:44:48;11.10;99.90
17348;DHT22;8791;50.876;4.342;2022-11-04T04:47:35;11.10;99.90
17348;DHT22;8791;50.876;4.342;2022-11-04T04:50:04;11.30;99.90
17348;DHT22;8791;50.876;4.342;2022-11-04T04:52:33;11.40;99.90
17348;DHT22;8791;50.876;4.342;2022-11-04T04:55:02;11.30;99.90
17348;DHT22;8791;50.876;4.342;2022-11-04T04:57:29;11.30;99.90
17348;DHT22;8791;50.876;4.342;2022-11-04T04:59:55;11.30;99.90
17348;DHT22;8791;50.876;4.342;2022-11-04T05:02:22;11.30;99.90
17348;DHT22;8791;50.876;4.342;2022-11-04T05:04:50;11.30;99.90
17348;DHT22;8791;50.876;4.342;2022-11-04T05:07:17;11.60;99.90
17348;DHT22;8791;50.876;4.342;2022-11-04T05:09:44;11.50;99.90
17348;DHT22;8791;50.876;4.342;2022-11-04T05:12:11;11.50;99.90
17348;DHT22;8791;50.876;4.342;2022-11-04T05:14:38;11.60;99.90
17348;DHT22;8791;50.876;4.342;2022-11-04T05:17:04;11.70;99.90
17348;DHT22;8791;50.876;4.342;2022-11-04T05:19:31;11.80;99.90
17348;DHT22;8791;50.876;4.342;2022-11-04T05:21:59;11.90;99.90
17348;DHT22;8791;50.876;4.342;2022-11-04T05:24:26;12.00;99.90
17348;DHT22;8791;50.876;4.342;2022-11-04T05:26:53;11.70;99.90
17348;DHT22;8791;50.876;4.342;2022-11-04T05:29:20;11.50;99.90
17348;DHT22;8791;50.876;4.342;2022-11-04T05:31:47;11.40;99.90
17348;DHT22;8791;50.876;4.342;2022-11-04T05:34:14;11.50;99.90
17348;DHT22;8791;50.876;4.342;2022-11-04T05:36:41;11.40;99.90
17348;DHT22;8791;50.876;4.342;2022-11-04T05:39:12;11.30;99.90
17348;DHT22;8791;50.876;4.342;2022-11-04T05:41:39;11.20;99.90
17348;DHT22;8791;50.876;4.342;2022-11-04T05:44:06;11.10;99.90
17348;DHT22;8791;50.876;4.342;2022-11-04T05:46:34;11.00;99.90
17348;DHT22;8791;50.876;4.342;2022-11-04T05:49:01;11.00;99.90
17348;DHT22;8791;50.876;4.342;2022-11-04T05:51:28;11.00;99.90
17348;DHT22;8791;50.876;4.342;2022-11-04T05:53:55;11.30;99.90
17348;DHT22;8791;50.876;4.342;2022-11-04T05:56:23;11.40;99.90
17348;DHT22;8791;50.876;4.342;2022-11-04T05:58:50;11.50;99.90
17348;DHT22;8791;50.876;4.342;2022-11-04T06:01:26;11.40;99.90
17348;DHT22;8791;50.876;4.342;2022-11-04T06:03:57;11.40;99.90
17348;DHT22;8791;50.876;4.342;2022-11-04T06:06:27;11.60;99.90
17348;DHT22;8791;50.876;4.342;2022-11-04T06:08:55;11.80;99.90
17348;DHT22;8791;50.876;4.342;2022-11-04T06:11:25;11.80;99.90
17348;DHT22;8791;50.876;4.342;2022-11-04T06:13:53;11.60;99.90
17348;DHT22;8791;50.876;4.342;2022-11-04T06:16:20;11.70;99.90
17348;DHT22;8791;50.876;4.342;2022-11-04T06:18:47;11.50;99.90
17348;DHT22;8791;50.876;4.342;2022-11-04T06:21:24;11.40;99.90
17348;DHT22;8791;50.876;4.342;2022-11-04T06:23:52;11.60;99.90
17348;DHT22;8791;50.876;4.342;2022-11-04T06:26:21;11.50;99.90
17348;DHT22;8791;50.876;4.342;2022-11-04T06:28:49;11.60;99.90
17348;DHT22;8791;50.876;4.342;2022-11-04T06:31:16;11.50;99.90
17348;DHT22;8791;50.876;4.342;2022-11-04T06:33:44;11.60;99.90
17348;DHT22;8791;50.876;4.342;2022-11-04T06:36:13;11.80;99.90
17348;DHT22;8791;50.876;4.342;2022-11-04T06:38:40;11.90;99.90
17348;DHT22;8791;50.876;4.342;2022-11-04T06:41:10;11.80;99.90
17348;DHT22;8791;50.876;4.342;2022-11-04T06:43:37;11.90;99.90
17348;DHT22;8791;50.876;4.342;2022-11-04T06:46:20;11.80;99.90
17348;DHT22;8791;50.876;4.342;2022-11-04T06:48:48;11.70;99.90
17348;DHT22;8791;50.876;4.342;2022-11-04T06:51:16;11.60;99.90
17348;DHT22;8791;50.876;4.342;2022-11-04T06:53:43;11.70;99.90
17348;DHT22;8791;50.876;4.342;2022-11-04T06:56:10;11.60;99.90
17348;DHT22;8791;50.876;4.342;2022-11-04T06:58:37;11.50;99.90
17348;DHT22;8791;50.876;4.342;2022-11-04T07:01:04;11.50;99.90
17348;DHT22;8791;50.876;4.342;2022-11-04T07:03:32;11.50;99.90
17348;DHT22;8791;50.876;4.342;2022-11-04T07:06:02;11.50;99.90
17348;DHT22;8791;50.876;4.342;2022-11-04T07:08:30;11.50;99.90
17348;DHT22;8791;50.876;4.342;2022-11-04T07:10:57;11.70;99.90
17348;DHT22;8791;50.876;4.342;2022-11-04T07:13:24;11.70;99.90
17348;DHT22;8791;50.876;4.342;2022-11-04T07:15:51;11.70;99.90
17348;DHT22;8791;50.876;4.342;2022-11-04T07:18:17;11.60;99.90
17348;DHT22;8791;50.876;4.342;2022-11-04T07:20:45;11.70;99.90
17348;DHT22;8791;50.876;4.342;2022-11-04T07:23:12;11.70;99.90
17348;DHT22;8791;50.876;4.342;2022-11-04T07:25:39;11.70;99.90
17348;DHT22;8791;50.876;4.342;2022-11-04T07:28:06;11.70;99.90
17348;DHT22;8791;50.876;4.342;2022-11-04T07:30:33;11.70;99.90
17348;DHT22;8791;50.876;4.342;2022-11-04T07:32:59;11.70;99.90
17348;DHT22;8791;50.876;4.342;2022-11-04T07:35:26;11.80;99.90
17348;DHT22;8791;50.876;4.342;2022-11-04T07:37:55;12.10;99.90
17348;DHT22;8791;50.876;4.342;2022-11-04T07:40:22;12.10;99.90
17348;DHT22;8791;50.876;4.342;2022-11-04T07:42:48;12.00;99.90
17348;DHT22;8791;50.876;4.342;2022-11-04T07:45:15;11.90;99.90
17348;DHT22;8791;50.876;4.342;2022-11-04T07:47:42;12.00;99.90
17348;DHT22;8791;50.876;4.342;2022-11-04T07:50:09;12.10;99.90
17348;DHT22;8791;50.876;4.342;2022-11-04T07:52:36;12.20;99.90
17348;DHT22;8791;50.876;4.342;2022-11-04T07:55:05;12.10;99.90
17348;DHT22;8791;50.876;4.342;2022-11-04T07:57:33;12.10;99.90
17348;DHT22;8791;50.876;4.342;2022-11-04T08:00:00;12.20;99.90
17348;DHT22;8791;50.876;4.342;2022-11-04T08:02:27;12.20;99.90
17348;DHT22;8791;50.876;4.342;2022-11-04T08:04:54;12.20;99.90
17348;DHT22;8791;50.876;4.342;2022-11-04T08:07:21;12.00;99.90
17348;DHT22;8791;50.876;4.342;2022-11-04T08:09:47;12.00;99.90
17348;DHT22;8791;50.876;4.342;2022-11-04T08:12:16;12.10;99.90
17348;DHT22;8791;50.876;4.342;2022-11-04T08:14:45;12.10;99.90
17348;DHT22;8791;50.876;4.342;2022-11-04T08:17:11;12.30;99.90
17348;DHT22;8791;50.876;4.342;2022-11-04T08:19:38;12.30;99.90
17348;DHT22;8791;50.876;4.342;2022-11-04T08:22:05;12.30;99.90
17348;DHT22;8791;50.876;4.342;2022-11-04T08:24:34;12.20;99.90
17348;DHT22;8791;50.876;4.342;2022-11-04T08:27:01;12.40;99.90
17348;DHT22;8791;50.876;4.342;2022-11-04T08:29:33;12.40;99.90
17348;DHT22;8791;50.876;4.342;2022-11-04T08:32:00;12.30;99.90
17348;DHT22;8791;50.876;4.342;2022-11-04T08:34:27;12.20;99.90
17348;DHT22;8791;50.876;4.342;2022-11-04T08:36:54;12.20;99.90
17348;DHT22;8791;50.876;4.342;2022-11-04T08:39:22;12.30;99.90
17348;DHT22;8791;50.876;4.342;2022-11-04T08:41:50;12.20;99.90
17348;DHT22;8791;50.876;4.342;2022-11-04T08:44:18;12.20;99.90
17348;DHT22;8791;50.876;4.342;2022-11-04T08:46:47;12.30;99.90
17348;DHT22;8791;50.876;4.342;2022-11-04T08:49:14;12.30;99.90
17348;DHT22;8791;50.876;4.342;2022-11-04T08:51:43;12.50;99.90
17348;DHT22;8791;50.876;4.342;2022-11-04T08:54:11;12.20;99.90
17348;DHT22;8791;50.876;4.342;2022-11-04T08:56:39;12.20;99.90
17348;DHT22;8791;50.876;4.342;2022-11-04T08:59:06;12.30;99.90
17348;DHT22;8791;50.876;4.342;2022-11-04T09:01:34;12.30;99.90
17348;DHT22;8791;50.876;4.342;2022-11-04T09:04:03;12.50;99.90
17348;DHT22;8791;50.876;4.342;2022-11-04T09:06:32;12.60;99.90
17348;DHT22;8791;50.876;4.342;2022-11-04T09:09:00;12.80;99.90
17348;DHT22;8791;50.876;4.342;2022-11-04T09:11:30;12.80;99.90
17348;DHT22;8791;50.876;4.342;2022-11-04T09:13:58;12.80;99.90
17348;DHT22;8791;50.876;4.342;2022-11-04T09:16:27;12.70;99.90
17348;DHT22;8791;50.876;4.342;2022-11-04T09:18:55;12.70;99.90
17348;DHT22;8791;50.876;4.342;2022-11-04T09:21:24;12.70;99.90
17348;DHT22;8791;50.876;4.342;2022-11-04T09:23:51;12.60;99.90
17348;DHT22;8791;50.876;4.342;2022-11-04T09:26:18;12.70;99.90
17348;DHT22;8791;50.876;4.342;2022-11-04T09:28:45;12.70;99.90
17348;DHT22;8791;50.876;4.342;2022-11-04T09:31:14;12.80;99.90
17348;DHT22;8791;50.876;4.342;2022-11-04T09:33:41;12.80;99.90
17348;DHT22;8791;50.876;4.342;2022-11-04T09:36:09;12.90;99.90
17348;DHT22;8791;50.876;4.342;2022-11-04T09:38:39;12.80;99.90
17348;DHT22;8791;50.876;4.342;2022-11-04T09:41:27;12.50;99.90
17348;DHT22;8791;50.876;4.342;2022-11-04T09:44:02;12.80;99.90
17348;DHT22;8791;50.876;4.342;2022-11-04T09:46:32;12.70;99.90
17348;DHT22;8791;50.876;4.342;2022-11-04T09:49:02;13.00;99.90
17348;DHT22;8791;50.876;4.342;2022-11-04T09:51:29;13.20;99.90
17348;DHT22;8791;50.876;4.342;2022-11-04T09:54:02;13.40;99.90
17348;DHT22;8791;50.876;4.342;2022-11-04T09:56:33;13.40;99.90
17348;DHT22;8791;50.876;4.342;2022-11-04T09:59:02;13.50;99.90
17348;DHT22;8791;50.876;4.342;2022-11-04T10:01:36;13.60;99.90
17348;DHT22;8791;50.876;4.342;2022-11-04T10:04:18;13.70;99.90
17348;DHT22;8791;50.876;4.342;2022-11-04T10:07:01;13.70;99.90
17348;DHT22;8791;50.876;4.342;2022-11-04T10:09:50;13.30;99.90
17348;DHT22;8791;50.876;4.342;2022-11-04T10:12:34;13.50;99.90
17348;DHT22;8791;50.876;4.342;2022-11-04T10:15:15;13.60;99.90
17348;DHT22;8791;50.876;4.342;2022-11-04T10:18:03;13.60;99.90
17348;DHT22;8791;50.876;4.342;2022-11-04T10:20:43;13.60;99.90
17348;DHT22;8791;50.876;4.342;2022-11-04T10:23:20;13.40;99.90
17348;DHT22;8791;50.876;4.342;2022-11-04T10:25:53;13.30;99.90
17348;DHT22;8791;50.876;4.342;2022-11-04T10:28:26;13.30;99.90
17348;DHT22;8791;50.876;4.342;2022-11-04T10:30:55;13.30;99.90
17348;DHT22;8791;50.876;4.342;2022-11-04T10:33:27;13.30;99.90
17348;DHT22;8791;50.876;4.342;2022-11-04T10:35:55;13.50;99.90
17348;DHT22;8791;50.876;4.342;2022-11-04T10:38:32;13.50;99.90
17348;DHT22;8791;50.876;4.342;2022-11-04T10:41:01;13.30;99.90
17348;DHT22;8791;50.876;4.342;2022-11-04T10:43:31;13.30;99.90
17348;DHT22;8791;50.876;4.342;2022-11-04T10:46:14;13.30;99.90
17348;DHT22;8791;50.876;4.342;2022-11-04T10:48:50;13.20;99.90
17348;DHT22;8791;50.876;4.342;2022-11-04T10:51:20;13.30;99.90
17348;DHT22;8791;50.876;4.342;2022-11-04T10:53:52;13.00;99.90
17348;DHT22;8791;50.876;4.342;2022-11-04T10:56:28;13.10;99.90
17348;DHT22;8791;50.876;4.342;2022-11-04T10:58:59;12.70;99.90
17348;DHT22;8791;50.876;4.342;2022-11-04T11:01:34;12.80;99.90
17348;DHT22;8791;50.876;4.342;2022-11-04T11:04:05;12.50;99.90
17348;DHT22;8791;50.876;4.342;2022-11-04T11:06:34;12.30;99.90
17348;DHT22;8791;50.876;4.342;2022-11-04T11:09:12;12.30;99.90
17348;DHT22;8791;50.876;4.342;2022-11-04T11:11:43;12.30;99.90
17348;DHT22;8791;50.876;4.342;2022-11-04T11:14:17;12.20;99.90
17348;DHT22;8791;50.876;4.342;2022-11-04T11:16:44;12.40;99.90
17348;DHT22;8791;50.876;4.342;2022-11-04T11:19:15;12.40;99.90
17348;DHT22;8791;50.876;4.342;2022-11-04T11:21:44;12.20;99.90
17348;DHT22;8791;50.876;4.342;2022-11-04T11:24:20;12.20;99.90
17348;DHT22;8791;50.876;4.342;2022-11-04T11:26:50;12.60;99.90
17348;DHT22;8791;50.876;4.342;2022-11-04T11:29:21;12.80;99.90
17348;DHT22;8791;50.876;4.342;2022-11-04T11:31:49;13.00;99.90
17348;DHT22;8791;50.876;4.342;2022-11-04T11:34:20;12.90;99.90
17348;DHT22;8791;50.876;4.342;2022-11-04T11:36:49;13.20;99.90
17348;DHT22;8791;50.876;4.342;2022-11-04T11:39:18;13.30;99.90
17348;DHT22;8791;50.876;4.342;2022-11-04T11:41:53;13.40;99.90
17348;DHT22;8791;50.876;4.342;2022-11-04T11:44:27;13.40;99.90
17348;DHT22;8791;50.876;4.342;2022-11-04T11:46:59;13.00;99.90
17348;DHT22;8791;50.876;4.342;2022-11-04T11:49:29;12.90;99.90
17348;DHT22;8791;50.876;4.342;2022-11-04T11:52:16;12.80;99.90
17348;DHT22;8791;50.876;4.342;2022-11-04T11:54:51;12.60;99.90
17348;DHT22;8791;50.876;4.342;2022-11-04T11:57:32;12.70;99.90
17348;DHT22;8791;50.876;4.342;2022-11-04T12:00:03;12.80;99.90
17348;DHT22;8791;50.876;4.342;2022-11-04T12:02:40;12.90;99.90
17348;DHT22;8791;50.876;4.342;2022-11-04T12:05:09;13.00;99.90
17348;DHT22;8791;50.876;4.342;2022-11-04T12:07:40;12.80;99.90
17348;DHT22;8791;50.876;4.342;2022-11-04T12:10:18;12.90;99.90
17348;DHT22;8791;50.876;4.342;2022-11-04T12:12:59;13.30;99.90
17348;DHT22;8791;50.876;4.342;2022-11-04T12:15:36;13.40;99.90
17348;DHT22;8791;50.876;4.342;2022-11-04T12:18:29;13.60;99.90
17348;DHT22;8791;50.876;4.342;2022-11-04T12:21:02;13.40;99.90
17348;DHT22;8791;50.876;4.342;2022-11-04T12:23:38;13.10;99.90
17348;DHT22;8791;50.876;4.342;2022-11-04T12:26:13;13.10;99.90
17348;DHT22;8791;50.876;4.342;2022-11-04T12:29:02;13.20;99.90
17348;DHT22;8791;50.876;4.342;2022-11-04T12:31:40;13.30;99.90
17348;DHT22;8791;50.876;4.342;2022-11-04T12:34:15;13.50;99.90
17348;DHT22;8791;50.876;4.342;2022-11-04T12:36:57;13.50;99.90
17348;DHT22;8791;50.876;4.342;2022-11-04T12:39:42;13.40;99.90
17348;DHT22;8791;50.876;4.342;2022-11-04T12:42:18;13.60;99.90
17348;DHT22;8791;50.876;4.342;2022-11-04T12:44:55;13.60;99.90
17348;DHT22;8791;50.876;4.342;2022-11-04T12:47:33;13.30;99.90
17348;DHT22;8791;50.876;4.342;2022-11-04T12:50:08;13.20;99.90
17348;DHT22;8791;50.876;4.342;2022-11-04T12:52:54;13.20;99.90
17348;DHT22;8791;50.876;4.342;2022-11-04T12:55:47;13.00;99.90
17348;DHT22;8791;50.876;4.342;2022-11-04T12:58:32;13.30;99.90
17348;DHT22;8791;50.876;4.342;2022-11-04T13:01:09;13.60;99.90
17348;DHT22;8791;50.876;4.342;2022-11-04T13:03:44;13.70;99.90
17348;DHT22;8791;50.876;4.342;2022-11-04T13:06:16;13.60;99.90
17348;DHT22;8791;50.876;4.342;2022-11-04T13:08:49;13.50;99.90
17348;DHT22;8791;50.876;4.342;2022-11-04T13:11:22;13.40;99.90
17348;DHT22;8791;50.876;4.342;2022-11-04T13:13:55;13.50;99.90
17348;DHT22;8791;50.876;4.342;2022-11-04T13:16:26;13.70;99.90
17348;DHT22;8791;50.876;4.342;2022-11-04T13:19:01;13.80;99.90
17348;DHT22;8791;50.876;4.342;2022-11-04T13:21:32;13.60;99.90
17348;DHT22;8791;50.876;4.342;2022-11-04T13:24:10;13.40;99.90
17348;DHT22;8791;50.876;4.342;2022-11-04T13:26:41;13.30;99.90
17348;DHT22;8791;50.876;4.342;2022-11-04T13:29:13;13.40;99.90
17348;DHT22;8791;50.876;4.342;2022-11-04T13:31:50;13.40;99.90
17348;DHT22;8791;50.876;4.342;2022-11-04T13:34:25;13.50;99.90
17348;DHT22;8791;50.876;4.342;2022-11-04T13:37:07;13.50;99.90
17348;DHT22;8791;50.876;4.342;2022-11-04T13:39:44;13.50;99.90
17348;DHT22;8791;50.876;4.342;2022-11-04T13:42:35;13.60;99.90
17348;DHT22;8791;50.876;4.342;2022-11-04T13:45:23;13.60;99.90
17348;DHT22;8791;50.876;4.342;2022-11-04T13:47:58;13.40;99.90
17348;DHT22;8791;50.876;4.342;2022-11-04T13:50:31;13.10;99.90
17348;DHT22;8791;50.876;4.342;2022-11-04T13:53:00;13.00;99.90
17348;DHT22;8791;50.876;4.342;2022-11-04T13:55:27;12.80;99.90
17348;DHT22;8791;50.876;4.342;2022-11-04T13:58:02;12.60;99.90
17348;DHT22;8791;50.876;4.342;2022-11-04T14:00:31;12.40;99.90
17348;DHT22;8791;50.876;4.342;2022-11-04T14:03:00;12.50;99.90
17348;DHT22;8791;50.876;4.342;2022-11-04T14:06:02;12.80;99.90
17348;DHT22;8791;50.876;4.342;2022-11-04T14:12:16;13.20;99.90
17348;DHT22;8791;50.876;4.342;2022-11-04T14:14:45;13.10;99.90
17348;DHT22;8791;50.876;4.342;2022-11-04T14:20:23;13.30;99.90
17348;DHT22;8791;50.876;4.342;2022-11-04T14:22:52;13.30;99.90
17348;DHT22;8791;50.876;4.342;2022-11-04T14:25:29;12.50;99.90
17348;DHT22;8791;50.876;4.342;2022-11-04T14:27:58;11.80;99.90
17348;DHT22;8791;50.876;4.342;2022-11-04T14:30:35;11.20;99.90
17348;DHT22;8791;50.876;4.342;2022-11-04T14:33:05;10.90;99.90
17348;DHT22;8791;50.876;4.342;2022-11-04T14:35:34;10.60;99.90
17348;DHT22;8791;50.876;4.342;2022-11-04T14:38:06;10.50;99.90
17348;DHT22;8791;50.876;4.342;2022-11-04T14:40:48;10.50;99.90
17348;DHT22;8791;50.876;4.342;2022-11-04T14:43:30;10.40;99.90
17348;DHT22;8791;50.876;4.342;2022-11-04T14:45:59;10.50;99.90
17348;DHT22;8791;50.876;4.342;2022-11-04T14:48:27;10.60;99.90
17348;DHT22;8791;50.876;4.342;2022-11-04T14:51:20;10.60;99.90
17348;DHT22;8791;50.876;4.342;2022-11-04T14:53:49;10.80;99.90
17348;DHT22;8791;50.876;4.342;2022-11-04T14:56:20;10.90;99.90
17348;DHT22;8791;50.876;4.342;2022-11-04T14:58:55;11.00;99.90
17348;DHT22;8791;50.876;4.342;2022-11-04T15:01:23;10.90;99.90
17348;DHT22;8791;50.876;4.342;2022-11-04T15:03:51;10.90;99.90
17348;DHT22;8791;50.876;4.342;2022-11-04T15:06:25;10.80;99.90
17348;DHT22;8791;50.876;4.342;2022-11-04T15:08:53;10.80;99.90
17348;DHT22;8791;50.876;4.342;2022-11-04T15:11:22;10.60;99.90
17348;DHT22;8791;50.876;4.342;2022-11-04T15:14:12;10.70;99.90
17348;DHT22;8791;50.876;4.342;2022-11-04T15:16:40;10.70;99.90
17348;DHT22;8791;50.876;4.342;2022-11-04T15:19:08;10.90;99.90
17348;DHT22;8791;50.876;4.342;2022-11-04T15:21:39;11.00;99.90
17348;DHT22;8791;50.876;4.342;2022-11-04T15:24:12;11.10;99.90
17348;DHT22;8791;50.876;4.342;2022-11-04T15:26:40;10.90;99.90
17348;DHT22;8791;50.876;4.342;2022-11-04T15:29:08;10.80;99.90
17348;DHT22;8791;50.876;4.342;2022-11-04T15:31:38;10.70;99.90
17348;DHT22;8791;50.876;4.342;2022-11-04T15:34:09;10.70;99.90
17348;DHT22;8791;50.876;4.342;2022-11-04T15:36:40;10.70;99.90
17348;DHT22;8791;50.876;4.342;2022-11-04T15:39:11;10.70;99.90
17348;DHT22;8791;50.876;4.342;2022-11-04T15:41:40;10.80;99.90
17348;DHT22;8791;50.876;4.342;2022-11-04T15:44:27;10.80;99.90
17348;DHT22;8791;50.876;4.342;2022-11-04T15:46:56;11.00;99.90
17348;DHT22;8791;50.876;4.342;2022-11-04T15:49:25;11.00;99.90
17348;DHT22;8791;50.876;4.342;2022-11-04T15:51:58;10.90;99.90
17348;DHT22;8791;50.876;4.342;2022-11-04T15:54:28;10.90;99.90
17348;DHT22;8791;50.876;4.342;2022-11-04T15:56:57;11.10;99.90
17348;DHT22;8791;50.876;4.342;2022-11-04T15:59:28;11.10;99.90
17348;DHT22;8791;50.876;4.342;2022-11-04T16:01:56;11.40;99.90
17348;DHT22;8791;50.876;4.342;2022-11-04T16:04:25;11.50;99.90
17348;DHT22;8791;50.876;4.342;2022-11-04T16:07:06;11.70;99.90
17348;DHT22;8791;50.876;4.342;2022-11-04T16:09:47;11.70;99.90
17348;DHT22;8791;50.876;4.342;2022-11-04T16:12:16;11.60;99.90
17348;DHT22;8791;50.876;4.342;2022-11-04T16:14:52;11.50;99.90
17348;DHT22;8791;50.876;4.342;2022-11-04T16:17:20;11.10;99.90
17348;DHT22;8791;50.876;4.342;2022-11-04T16:19:50;10.80;99.90
17348;DHT22;8791;50.876;4.342;2022-11-04T16:22:26;10.80;99.90
17348;DHT22;8791;50.876;4.342;2022-11-04T16:24:54;10.80;99.90
17348;DHT22;8791;50.876;4.342;2022-11-04T16:27:22;10.80;99.90